sensor_id;sensor_type;location;lat;lon;timestamp;pressure;altitude;pressure_sealevel;temperature;humidity
70343;BME280;57767;42.068;24.752;2023-12-07T00:00:49;98527.69;;;5.54;91.84
70343;BME280;57767;42.068;24.752;2023-12-07T00:01:51;98417.88;;;4.65;91.38
70343;BME280;57767;42.068;24.752;2023-12-07T00:02:53;98322.06;;;4.28;91.31
70343;BME280;57767;42.068;24.752;2023-12-07T00:03:55;98176.78;;;3.39;90.83
70343;BME280;57767;42.068;24.752;2023-12-07T00:04:57;98229.81;;;3.69;91.30
70343;BME280;57767;42.068;24.752;2023-12-07T00:05:58;98301.25;;;4.06;91.62
70343;BME280;57767;42.068;24.752;2023-12-07T00:07:00;98438.94;;;5.08;91.16
70343;BME280;57767;42.068;24.752;2023-12-07T00:08:02;98213.69;;;3.36;90.79
70343;BME280;57767;42.068;24.752;2023-12-07T00:09:04;98515.81;;;5.36;91.76
70343;BME280;57767;42.068;24.752;2023-12-07T00:10:06;98520.22;;;5.51;91.92
70343;BME280;57767;42.068;24.752;2023-12-07T00:11:08;98313.06;;;4.16;91.48
70343;BME280;57767;42.068;24.752;2023-12-07T00:12:10;98477.94;;;5.03;92.10
70343;BME280;57767;42.068;24.752;2023-12-07T00:13:12;98522.03;;;5.35;91.64
70343;BME280;57767;42.068;24.752;2023-12-07T00:14:14;98274.66;;;3.73;91.63
70343;BME280;57767;42.068;24.752;2023-12-07T00:15:15;98487.78;;;5.01;91.65
70343;BME280;57767;42.068;24.752;2023-12-07T00:16:17;98232.28;;;3.33;91.77
70343;BME280;57767;42.068;24.752;2023-12-07T00:17:19;98423.28;;;4.64;91.89
70343;BME280;57767;42.068;24.752;2023-12-07T00:18:21;98425.09;;;4.63;91.64
70343;BME280;57767;42.068;24.752;2023-12-07T00:19:23;98524.59;;;5.29;91.99
70343;BME280;57767;42.068;24.752;2023-12-07T00:20:25;98424.56;;;4.68;92.20
70343;BME280;57767;42.068;24.752;2023-12-07T00:21:26;98414.91;;;4.68;92.33
70343;BME280;57767;42.068;24.752;2023-12-07T00:22:28;98421.13;;;4.53;91.63
70343;BME280;57767;42.068;24.752;2023-12-07T00:23:30;98516.97;;;5.34;92.01
70343;BME280;57767;42.068;24.752;2023-12-07T00:24:32;98268.09;;;3.77;91.11
70343;BME280;57767;42.068;24.752;2023-12-07T00:25:34;98274.66;;;3.87;91.08
70343;BME280;57767;42.068;24.752;2023-12-07T00:26:35;98518.69;;;5.42;91.07
70343;BME280;57767;42.068;24.752;2023-12-07T00:27:37;98277.13;;;3.89;91.08
70343;BME280;57767;42.068;24.752;2023-12-07T00:28:39;98319.47;;;4.14;90.63
70343;BME280;57767;42.068;24.752;2023-12-07T00:29:41;98480.63;;;5.10;90.60
70343;BME280;57767;42.068;24.752;2023-12-07T00:30:43;98324.50;;;4.01;90.47
70343;BME280;57767;42.068;24.752;2023-12-07T00:31:44;98205.72;;;3.30;91.14
70343;BME280;57767;42.068;24.752;2023-12-07T00:32:46;98272.81;;;3.58;91.00
70343;BME280;57767;42.068;24.752;2023-12-07T00:33:48;98521.16;;;5.28;90.96
70343;BME280;57767;42.068;24.752;2023-12-07T00:34:50;98314.69;;;4.03;90.94
70343;BME280;57767;42.068;24.752;2023-12-07T00:35:51;98138.94;;;2.91;90.64
70343;BME280;57767;42.068;24.752;2023-12-07T00:36:53;98292.75;;;3.74;90.73
70343;BME280;57767;42.068;24.752;2023-12-07T00:37:55;98490.50;;;4.93;91.25
70343;BME280;57767;42.068;24.752;2023-12-07T00:38:57;98421.78;;;4.55;91.28
70343;BME280;57767;42.068;24.752;2023-12-07T00:39:59;98168.47;;;2.83;91.50
70343;BME280;57767;42.068;24.752;2023-12-07T00:41:01;98522.03;;;5.21;91.61
70343;BME280;57767;42.068;24.752;2023-12-07T00:42:03;98286.56;;;3.75;91.19
70343;BME280;57767;42.068;24.752;2023-12-07T00:43:05;98241.41;;;3.52;91.22
70343;BME280;57767;42.068;24.752;2023-12-07T00:44:07;98402.38;;;4.49;91.87
70343;BME280;57767;42.068;24.752;2023-12-07T00:45:08;98506.25;;;5.14;91.47
70343;BME280;57767;42.068;24.752;2023-12-07T00:46:10;98481.44;;;4.95;92.22
70343;BME280;57767;42.068;24.752;2023-12-07T00:47:12;98513.13;;;5.15;92.17
70343;BME280;57767;42.068;24.752;2023-12-07T00:48:14;98301.94;;;3.85;92.26
70343;BME280;57767;42.068;24.752;2023-12-07T00:49:16;98360.28;;;4.29;91.40
70343;BME280;57767;42.068;24.752;2023-12-07T00:50:18;98278.50;;;3.62;91.74
70343;BME280;57767;42.068;24.752;2023-12-07T00:51:20;98523.59;;;5.15;92.79
70343;BME280;57767;42.068;24.752;2023-12-07T00:52:21;98484.97;;;4.88;92.77
70343;BME280;57767;42.068;24.752;2023-12-07T00:53:24;98136.06;;;2.63;92.33
70343;BME280;57767;42.068;24.752;2023-12-07T00:54:26;98511.16;;;5.02;92.27
70343;BME280;57767;42.068;24.752;2023-12-07T00:55:27;98477.66;;;4.83;93.03
70343;BME280;57767;42.068;24.752;2023-12-07T00:56:29;98524.47;;;5.22;92.85
70343;BME280;57767;42.068;24.752;2023-12-07T00:57:31;98546.69;;;5.26;92.84
70343;BME280;57767;42.068;24.752;2023-12-07T00:58:32;98266.19;;;3.71;92.80
70343;BME280;57767;42.068;24.752;2023-12-07T00:59:34;98524.75;;;5.27;92.89
70343;BME280;57767;42.068;24.752;2023-12-07T01:00:36;98268.16;;;3.31;92.95
70343;BME280;57767;42.068;24.752;2023-12-07T01:01:38;98522.13;;;5.27;93.31
70343;BME280;57767;42.068;24.752;2023-12-07T01:02:40;98413.66;;;4.64;93.28
70343;BME280;57767;42.068;24.752;2023-12-07T01:03:42;98164.56;;;2.87;93.13
70343;BME280;57767;42.068;24.752;2023-12-07T01:04:44;98247.50;;;3.44;93.63
70343;BME280;57767;42.068;24.752;2023-12-07T01:05:46;98518.81;;;5.19;94.04
70343;BME280;57767;42.068;24.752;2023-12-07T01:06:48;98542.97;;;5.21;94.34
70343;BME280;57767;42.068;24.752;2023-12-07T01:07:50;98309.53;;;3.94;94.30
70343;BME280;57767;42.068;24.752;2023-12-07T01:08:52;98554.38;;;5.28;94.22
70343;BME280;57767;42.068;24.752;2023-12-07T01:09:54;98520.78;;;5.31;94.18
70343;BME280;57767;42.068;24.752;2023-12-07T01:10:55;98417.78;;;4.74;93.51
70343;BME280;57767;42.068;24.752;2023-12-07T01:11:58;98513.81;;;5.38;93.48
70343;BME280;57767;42.068;24.752;2023-12-07T01:12:59;98281.53;;;3.88;93.14
70343;BME280;57767;42.068;24.752;2023-12-07T01:14:01;98297.81;;;3.90;93.07
70343;BME280;57767;42.068;24.752;2023-12-07T01:15:04;98463.47;;;5.07;93.56
70343;BME280;57767;42.068;24.752;2023-12-07T01:16:06;98282.22;;;3.97;93.05
70343;BME280;57767;42.068;24.752;2023-12-07T01:17:08;98329.63;;;4.23;92.56
70343;BME280;57767;42.068;24.752;2023-12-07T01:18:10;98278.63;;;3.98;92.97
70343;BME280;57767;42.068;24.752;2023-12-07T01:19:12;98511.53;;;5.50;93.12
70343;BME280;57767;42.068;24.752;2023-12-07T01:20:16;98510.38;;;5.38;92.47
70343;BME280;57767;42.068;24.752;2023-12-07T01:21:18;98271.78;;;3.97;92.88
70343;BME280;57767;42.068;24.752;2023-12-07T01:22:21;98522.00;;;5.50;92.62
70343;BME280;57767;42.068;24.752;2023-12-07T01:23:23;98514.16;;;5.50;92.69
70343;BME280;57767;42.068;24.752;2023-12-07T01:24:25;98249.25;;;3.81;92.29
70343;BME280;57767;42.068;24.752;2023-12-07T01:25:26;98310.63;;;4.15;92.77
70343;BME280;57767;42.068;24.752;2023-12-07T01:26:28;98517.53;;;5.44;93.14
70343;BME280;57767;42.068;24.752;2023-12-07T01:27:30;98507.31;;;5.34;93.00
70343;BME280;57767;42.068;24.752;2023-12-07T01:28:32;98519.56;;;5.49;92.98
70343;BME280;57767;42.068;24.752;2023-12-07T01:29:35;98206.94;;;3.56;92.82
70343;BME280;57767;42.068;24.752;2023-12-07T01:30:37;98513.47;;;5.42;92.76
70343;BME280;57767;42.068;24.752;2023-12-07T01:31:39;98393.59;;;4.72;93.35
70343;BME280;57767;42.068;24.752;2023-12-07T01:32:41;98504.50;;;5.51;93.08
70343;BME280;57767;42.068;24.752;2023-12-07T01:33:43;98212.25;;;3.63;92.49
70343;BME280;57767;42.068;24.752;2023-12-07T01:34:45;98407.97;;;4.76;92.71
70343;BME280;57767;42.068;24.752;2023-12-07T01:35:47;98516.59;;;5.52;92.61
70343;BME280;57767;42.068;24.752;2023-12-07T01:36:49;98521.19;;;5.50;92.53
70343;BME280;57767;42.068;24.752;2023-12-07T01:37:50;98280.72;;;4.03;92.49
70343;BME280;57767;42.068;24.752;2023-12-07T01:38:52;98214.59;;;3.58;93.15
70343;BME280;57767;42.068;24.752;2023-12-07T01:39:54;98169.78;;;3.40;93.02
70343;BME280;57767;42.068;24.752;2023-12-07T01:40:56;98520.47;;;5.56;93.09
70343;BME280;57767;42.068;24.752;2023-12-07T01:41:58;98524.09;;;5.55;92.46
70343;BME280;57767;42.068;24.752;2023-12-07T01:43:00;98513.97;;;5.52;92.71
70343;BME280;57767;42.068;24.752;2023-12-07T01:44:02;98208.47;;;3.51;92.54
70343;BME280;57767;42.068;24.752;2023-12-07T01:45:06;98512.19;;;5.52;92.44
70343;BME280;57767;42.068;24.752;2023-12-07T01:46:08;98229.47;;;3.72;92.19
70343;BME280;57767;42.068;24.752;2023-12-07T01:47:10;98449.97;;;4.89;92.83
70343;BME280;57767;42.068;24.752;2023-12-07T01:48:13;98246.94;;;3.86;92.40
70343;BME280;57767;42.068;24.752;2023-12-07T01:49:15;98207.31;;;3.53;92.17
70343;BME280;57767;42.068;24.752;2023-12-07T01:50:17;98514.03;;;5.58;92.31
70343;BME280;57767;42.068;24.752;2023-12-07T01:51:25;98428.75;;;4.98;92.17
70343;BME280;57767;42.068;24.752;2023-12-07T01:52:29;98414.50;;;5.01;92.21
70343;BME280;57767;42.068;24.752;2023-12-07T01:53:31;98136.53;;;3.19;91.92
70343;BME280;57767;42.068;24.752;2023-12-07T01:54:33;98298.81;;;4.33;91.71
70343;BME280;57767;42.068;24.752;2023-12-07T01:55:35;98516.22;;;5.69;91.61
70343;BME280;57767;42.068;24.752;2023-12-07T01:56:38;98486.53;;;5.48;91.49
70343;BME280;57767;42.068;24.752;2023-12-07T01:57:41;98301.69;;;4.39;91.74
70343;BME280;57767;42.068;24.752;2023-12-07T01:58:44;98231.78;;;3.96;92.02
70343;BME280;57767;42.068;24.752;2023-12-07T01:59:46;98319.72;;;4.48;92.11
70343;BME280;57767;42.068;24.752;2023-12-07T02:00:49;98263.59;;;4.15;91.90
70343;BME280;57767;42.068;24.752;2023-12-07T02:01:51;98096.59;;;2.89;91.71
70343;BME280;57767;42.068;24.752;2023-12-07T02:02:53;98509.53;;;5.67;92.38
70343;BME280;57767;42.068;24.752;2023-12-07T02:03:55;98295.03;;;4.36;92.44
70343;BME280;57767;42.068;24.752;2023-12-07T02:04:57;98272.50;;;4.20;92.06
70343;BME280;57767;42.068;24.752;2023-12-07T02:05:59;98402.16;;;4.95;92.26
70343;BME280;57767;42.068;24.752;2023-12-07T02:07:03;98323.06;;;4.42;91.78
70343;BME280;57767;42.068;24.752;2023-12-07T02:08:06;98401.31;;;5.09;91.87
70343;BME280;57767;42.068;24.752;2023-12-07T02:09:07;98509.94;;;5.70;92.47
70343;BME280;57767;42.068;24.752;2023-12-07T02:10:10;98321.31;;;4.49;92.55
70343;BME280;57767;42.068;24.752;2023-12-07T02:11:12;98526.47;;;5.71;92.37
70343;BME280;57767;42.068;24.752;2023-12-07T02:12:14;98427.47;;;5.09;92.02
70343;BME280;57767;42.068;24.752;2023-12-07T02:13:16;98119.03;;;3.28;92.03
70343;BME280;57767;42.068;24.752;2023-12-07T02:14:19;98408.34;;;5.09;92.27
70343;BME280;57767;42.068;24.752;2023-12-07T02:15:21;98324.22;;;4.54;91.61
70343;BME280;57767;42.068;24.752;2023-12-07T02:17:49;98511.03;;;5.76;92.88
70343;BME280;57767;42.068;24.752;2023-12-07T02:20:41;98508.69;;;5.81;92.14
70343;BME280;57767;42.068;24.752;2023-12-07T02:21:49;98526.63;;;5.84;92.54
70343;BME280;57767;42.068;24.752;2023-12-07T02:23:03;98138.25;;;3.56;91.95
70343;BME280;57767;42.068;24.752;2023-12-07T02:24:06;98179.03;;;3.72;91.91
70343;BME280;57767;42.068;24.752;2023-12-07T02:25:10;98297.09;;;4.55;91.86
70343;BME280;57767;42.068;24.752;2023-12-07T02:26:13;98508.72;;;5.88;91.77
70343;BME280;57767;42.068;24.752;2023-12-07T02:27:17;98518.06;;;5.90;91.89
70343;BME280;57767;42.068;24.752;2023-12-07T02:28:18;98473.56;;;5.61;91.64
70343;BME280;57767;42.068;24.752;2023-12-07T02:29:20;98263.31;;;4.39;91.67
70343;BME280;57767;42.068;24.752;2023-12-07T02:30:22;98508.84;;;5.94;91.40
70343;BME280;57767;42.068;24.752;2023-12-07T02:31:24;98507.63;;;5.97;91.23
70343;BME280;57767;42.068;24.752;2023-12-07T02:32:26;98270.63;;;4.29;91.35
70343;BME280;57767;42.068;24.752;2023-12-07T02:33:28;98218.56;;;4.13;90.63
70343;BME280;57767;42.068;24.752;2023-12-07T02:34:30;98174.81;;;3.85;90.48
70343;BME280;57767;42.068;24.752;2023-12-07T02:35:32;98421.09;;;5.33;90.26
70343;BME280;57767;42.068;24.752;2023-12-07T02:36:37;98407.47;;;5.37;90.41
70343;BME280;57767;42.068;24.752;2023-12-07T02:37:50;98419.44;;;5.47;90.00
70343;BME280;57767;42.068;24.752;2023-12-07T02:38:53;98498.25;;;5.88;89.75
70343;BME280;57767;42.068;24.752;2023-12-07T02:39:57;98450.91;;;5.68;89.34
70343;BME280;57767;42.068;24.752;2023-12-07T02:41:00;98197.56;;;4.06;88.90
70343;BME280;57767;42.068;24.752;2023-12-07T02:42:04;98502.03;;;6.00;89.21
70343;BME280;57767;42.068;24.752;2023-12-07T02:43:07;98504.00;;;5.98;88.94
70343;BME280;57767;42.068;24.752;2023-12-07T02:44:10;98257.44;;;4.37;88.46
70343;BME280;57767;42.068;24.752;2023-12-07T02:45:12;98370.38;;;5.13;88.63
70343;BME280;57767;42.068;24.752;2023-12-07T02:46:14;98503.97;;;5.91;88.68
70343;BME280;57767;42.068;24.752;2023-12-07T02:47:16;98401.09;;;5.25;88.60
70343;BME280;57767;42.068;24.752;2023-12-07T02:48:20;98176.34;;;3.80;88.37
70343;BME280;57767;42.068;24.752;2023-12-07T02:49:22;98314.00;;;4.59;88.16
70343;BME280;57767;42.068;24.752;2023-12-07T02:50:24;98113.44;;;3.31;88.28
70343;BME280;57767;42.068;24.752;2023-12-07T02:51:26;98456.94;;;5.32;88.49
70343;BME280;57767;42.068;24.752;2023-12-07T02:52:27;98302.69;;;4.38;88.54
70343;BME280;57767;42.068;24.752;2023-12-07T02:53:31;98503.84;;;5.63;88.89
70343;BME280;57767;42.068;24.752;2023-12-07T02:54:33;98415.59;;;5.07;88.93
70343;BME280;57767;42.068;24.752;2023-12-07T02:55:34;98405.03;;;5.00;89.08
70343;BME280;57767;42.068;24.752;2023-12-07T02:56:36;98243.97;;;3.89;88.35
70343;BME280;57767;42.068;24.752;2023-12-07T02:57:38;98512.16;;;5.67;88.28
70343;BME280;57767;42.068;24.752;2023-12-07T02:58:40;98264.94;;;4.11;88.28
70343;BME280;57767;42.068;24.752;2023-12-07T02:59:42;98234.06;;;3.85;88.13
70343;BME280;57767;42.068;24.752;2023-12-07T03:00:44;98162.13;;;3.38;88.52
70343;BME280;57767;42.068;24.752;2023-12-07T03:01:45;98269.00;;;3.99;89.35
70343;BME280;57767;42.068;24.752;2023-12-07T03:02:47;98516.59;;;5.52;89.37
70343;BME280;57767;42.068;24.752;2023-12-07T03:03:49;98513.97;;;5.52;89.65
70343;BME280;57767;42.068;24.752;2023-12-07T03:04:51;98317.28;;;4.32;89.42
70343;BME280;57767;42.068;24.752;2023-12-07T03:05:53;98431.22;;;4.85;89.49
70343;BME280;57767;42.068;24.752;2023-12-07T03:06:54;98447.53;;;5.02;89.84
70343;BME280;57767;42.068;24.752;2023-12-07T03:07:56;98440.22;;;4.83;89.65
70343;BME280;57767;42.068;24.752;2023-12-07T03:08:58;98508.13;;;5.35;90.44
70343;BME280;57767;42.068;24.752;2023-12-07T03:10:00;98303.25;;;4.04;90.04
70343;BME280;57767;42.068;24.752;2023-12-07T03:11:03;98510.41;;;5.23;90.19
70343;BME280;57767;42.068;24.752;2023-12-07T03:12:06;98216.47;;;3.49;90.24
70343;BME280;57767;42.068;24.752;2023-12-07T03:13:08;98135.91;;;3.02;89.54
70343;BME280;57767;42.068;24.752;2023-12-07T03:14:10;98512.81;;;5.39;90.36
70343;BME280;57767;42.068;24.752;2023-12-07T03:15:11;98184.50;;;3.33;89.66
70343;BME280;57767;42.068;24.752;2023-12-07T03:16:15;98446.56;;;4.88;89.85
70343;BME280;57767;42.068;24.752;2023-12-07T03:17:16;98511.19;;;5.38;89.82
70343;BME280;57767;42.068;24.752;2023-12-07T03:18:18;98502.53;;;5.38;90.46
70343;BME280;57767;42.068;24.752;2023-12-07T03:19:20;98220.44;;;3.45;89.88
70343;BME280;57767;42.068;24.752;2023-12-07T03:20:22;98512.56;;;5.34;90.63
70343;BME280;57767;42.068;24.752;2023-12-07T03:21:24;98507.31;;;5.34;89.76
70343;BME280;57767;42.068;24.752;2023-12-07T03:22:26;98506.16;;;5.37;89.81
70343;BME280;57767;42.068;24.752;2023-12-07T03:23:28;98160.44;;;3.08;89.73
70343;BME280;57767;42.068;24.752;2023-12-07T03:24:30;98485.69;;;5.11;90.07
70343;BME280;57767;42.068;24.752;2023-12-07T03:25:32;98252.50;;;3.69;90.34
70343;BME280;57767;42.068;24.752;2023-12-07T03:26:33;98506.34;;;5.21;90.27
70343;BME280;57767;42.068;24.752;2023-12-07T03:27:35;98320.34;;;3.91;90.86
70343;BME280;57767;42.068;24.752;2023-12-07T03:28:37;98246.69;;;3.29;90.90
70343;BME280;57767;42.068;24.752;2023-12-07T03:29:39;98524.69;;;5.06;91.37
70343;BME280;57767;42.068;24.752;2023-12-07T03:30:41;98454.84;;;4.62;90.96
70343;BME280;57767;42.068;24.752;2023-12-07T03:31:42;98507.19;;;5.07;91.20
70343;BME280;57767;42.068;24.752;2023-12-07T03:32:44;98307.53;;;3.82;90.60
70343;BME280;57767;42.068;24.752;2023-12-07T03:33:46;98189.94;;;3.08;91.15
70343;BME280;57767;42.068;24.752;2023-12-07T03:34:48;98268.22;;;3.46;90.78
70343;BME280;57767;42.068;24.752;2023-12-07T03:35:50;98361.97;;;4.08;91.09
70343;BME280;57767;42.068;24.752;2023-12-07T03:36:52;98312.84;;;3.74;91.47
70343;BME280;57767;42.068;24.752;2023-12-07T03:37:54;98201.28;;;3.01;91.06
70343;BME280;57767;42.068;24.752;2023-12-07T03:38:55;98189.69;;;3.03;91.66
70343;BME280;57767;42.068;24.752;2023-12-07T03:39:58;98241.09;;;3.32;91.15
70343;BME280;57767;42.068;24.752;2023-12-07T03:40:59;98334.00;;;3.93;91.28
70343;BME280;57767;42.068;24.752;2023-12-07T03:42:01;98510.97;;;5.04;91.17
70343;BME280;57767;42.068;24.752;2023-12-07T03:43:03;98388.13;;;4.37;90.81
70343;BME280;57767;42.068;24.752;2023-12-07T03:44:06;98459.53;;;4.82;91.21
70343;BME280;57767;42.068;24.752;2023-12-07T03:45:08;98531.63;;;5.14;90.97
70343;BME280;57767;42.068;24.752;2023-12-07T03:46:10;98188.41;;;2.99;90.47
70343;BME280;57767;42.068;24.752;2023-12-07T03:47:12;98395.31;;;4.20;90.57
70343;BME280;57767;42.068;24.752;2023-12-07T03:48:14;98246.00;;;3.50;90.72
70343;BME280;57767;42.068;24.752;2023-12-07T03:49:16;98380.09;;;4.24;90.21
70343;BME280;57767;42.068;24.752;2023-12-07T03:50:17;98506.44;;;4.98;90.78
70343;BME280;57767;42.068;24.752;2023-12-07T03:51:19;98508.41;;;4.96;90.58
70343;BME280;57767;42.068;24.752;2023-12-07T03:52:21;98503.81;;;4.98;90.89
70343;BME280;57767;42.068;24.752;2023-12-07T03:53:23;98504.47;;;5.00;90.43
70343;BME280;57767;42.068;24.752;2023-12-07T03:54:24;98264.91;;;3.52;90.36
70343;BME280;57767;42.068;24.752;2023-12-07T03:55:26;98221.25;;;3.08;90.08
70343;BME280;57767;42.068;24.752;2023-12-07T03:56:29;98175.00;;;2.65;90.03
70343;BME280;57767;42.068;24.752;2023-12-07T03:57:31;98211.75;;;3.15;90.16
70343;BME280;57767;42.068;24.752;2023-12-07T03:58:33;98195.88;;;3.02;90.33
70343;BME280;57767;42.068;24.752;2023-12-07T03:59:36;98484.91;;;4.81;90.28
70343;BME280;57767;42.068;24.752;2023-12-07T04:00:38;98395.94;;;4.22;89.91
70343;BME280;57767;42.068;24.752;2023-12-07T04:01:40;98282.03;;;3.54;89.79
70343;BME280;57767;42.068;24.752;2023-12-07T04:02:41;98410.47;;;4.25;90.04
70343;BME280;57767;42.068;24.752;2023-12-07T04:03:43;98362.84;;;4.00;89.64
70343;BME280;57767;42.068;24.752;2023-12-07T04:04:45;98476.78;;;4.76;90.11
70343;BME280;57767;42.068;24.752;2023-12-07T04:05:46;98503.28;;;4.88;89.61
70343;BME280;57767;42.068;24.752;2023-12-07T04:06:49;98476.06;;;4.67;89.94
70343;BME280;57767;42.068;24.752;2023-12-07T04:07:51;98489.66;;;4.78;90.18
70343;BME280;57767;42.068;24.752;2023-12-07T04:08:52;98381.78;;;4.02;90.42
70343;BME280;57767;42.068;24.752;2023-12-07T04:09:54;98477.03;;;4.66;90.40
70343;BME280;57767;42.068;24.752;2023-12-07T04:10:56;98439.69;;;4.43;90.64
70343;BME280;57767;42.068;24.752;2023-12-07T04:11:57;98371.50;;;4.01;89.90
70343;BME280;57767;42.068;24.752;2023-12-07T04:12:59;97868.66;;;0.89;90.01
70343;BME280;57767;42.068;24.752;2023-12-07T04:14:01;98504.28;;;4.87;90.22
70343;BME280;57767;42.068;24.752;2023-12-07T04:15:03;98353.66;;;3.89;90.25
70343;BME280;57767;42.068;24.752;2023-12-07T04:16:05;98377.00;;;3.91;90.76
70343;BME280;57767;42.068;24.752;2023-12-07T04:17:07;98426.69;;;4.35;90.78
70343;BME280;57767;42.068;24.752;2023-12-07T04:18:09;98138.31;;;2.43;90.65
70343;BME280;57767;42.068;24.752;2023-12-07T04:19:11;98482.91;;;4.68;90.25
70343;BME280;57767;42.068;24.752;2023-12-07T04:20:12;98420.91;;;4.25;90.06
70343;BME280;57767;42.068;24.752;2023-12-07T04:21:17;98413.25;;;4.23;89.93
70343;BME280;57767;42.068;24.752;2023-12-07T04:22:19;98504.28;;;4.87;90.16
70343;BME280;57767;42.068;24.752;2023-12-07T04:23:21;98211.25;;;2.97;89.39
70343;BME280;57767;42.068;24.752;2023-12-07T04:24:23;98328.03;;;3.70;89.92
70343;BME280;57767;42.068;24.752;2023-12-07T04:25:25;98409.56;;;4.18;90.20
70343;BME280;57767;42.068;24.752;2023-12-07T04:26:26;98507.34;;;4.76;90.13
70343;BME280;57767;42.068;24.752;2023-12-07T04:27:28;98415.28;;;3.99;90.49
70343;BME280;57767;42.068;24.752;2023-12-07T04:28:30;98500.19;;;4.69;90.40
70343;BME280;57767;42.068;24.752;2023-12-07T04:29:32;98502.47;;;4.73;90.99
70343;BME280;57767;42.068;24.752;2023-12-07T04:30:33;98260.19;;;3.10;90.89
70343;BME280;57767;42.068;24.752;2023-12-07T04:31:35;98501.66;;;4.72;90.57
70343;BME280;57767;42.068;24.752;2023-12-07T04:32:37;98402.94;;;4.07;91.08
70343;BME280;57767;42.068;24.752;2023-12-07T04:33:40;98494.88;;;4.63;90.31
70343;BME280;57767;42.068;24.752;2023-12-07T04:34:43;98388.97;;;4.00;90.67
70343;BME280;57767;42.068;24.752;2023-12-07T04:35:44;98491.91;;;4.66;90.69
70343;BME280;57767;42.068;24.752;2023-12-07T04:36:46;98519.44;;;4.77;90.09
70343;BME280;57767;42.068;24.752;2023-12-07T04:37:48;98270.69;;;3.24;90.39
70343;BME280;57767;42.068;24.752;2023-12-07T04:38:49;98274.56;;;3.29;90.51
70343;BME280;57767;42.068;24.752;2023-12-07T04:39:51;98160.97;;;2.43;90.24
70343;BME280;57767;42.068;24.752;2023-12-07T04:40:53;98256.13;;;3.07;90.02
70343;BME280;57767;42.068;24.752;2023-12-07T04:41:55;98310.28;;;3.28;90.10
70343;BME280;57767;42.068;24.752;2023-12-07T04:42:57;98405.28;;;4.02;89.71
70343;BME280;57767;42.068;24.752;2023-12-07T04:43:58;98407.16;;;3.93;90.19
70343;BME280;57767;42.068;24.752;2023-12-07T04:45:00;98210.78;;;2.71;90.37
70343;BME280;57767;42.068;24.752;2023-12-07T04:46:02;98496.84;;;4.46;90.27
70343;BME280;57767;42.068;24.752;2023-12-07T04:47:05;98508.47;;;4.58;90.56
70343;BME280;57767;42.068;24.752;2023-12-07T04:48:07;98273.25;;;2.87;90.02
70343;BME280;57767;42.068;24.752;2023-12-07T04:49:09;98489.06;;;4.38;90.63
70343;BME280;57767;42.068;24.752;2023-12-07T04:50:11;98262.34;;;2.83;90.69
70343;BME280;57767;42.068;24.752;2023-12-07T04:51:13;98517.69;;;4.54;90.43
70343;BME280;57767;42.068;24.752;2023-12-07T04:52:15;98491.97;;;4.43;91.06
70343;BME280;57767;42.068;24.752;2023-12-07T04:53:16;98511.47;;;4.55;90.61
70343;BME280;57767;42.068;24.752;2023-12-07T04:54:18;98518.31;;;4.56;90.80
70343;BME280;57767;42.068;24.752;2023-12-07T04:55:20;98518.31;;;4.56;90.11
70343;BME280;57767;42.068;24.752;2023-12-07T04:56:22;98321.47;;;3.37;89.85
70343;BME280;57767;42.068;24.752;2023-12-07T04:57:25;98438.00;;;4.13;89.89
70343;BME280;57767;42.068;24.752;2023-12-07T04:58:26;98510.66;;;4.55;90.67
70343;BME280;57767;42.068;24.752;2023-12-07T04:59:29;98251.25;;;2.90;90.47
70343;BME280;57767;42.068;24.752;2023-12-07T05:00:30;98475.97;;;4.23;91.46
70343;BME280;57767;42.068;24.752;2023-12-07T05:01:32;98436.50;;;3.95;92.01
70343;BME280;57767;42.068;24.752;2023-12-07T05:02:34;98505.31;;;4.48;91.68
70343;BME280;57767;42.068;24.752;2023-12-07T05:03:35;98497.09;;;4.37;91.80
70343;BME280;57767;42.068;24.752;2023-12-07T05:04:37;98449.41;;;3.97;91.69
70343;BME280;57767;42.068;24.752;2023-12-07T05:05:39;98515.84;;;4.40;92.28
70343;BME280;57767;42.068;24.752;2023-12-07T05:06:41;98514.22;;;4.39;92.43
70343;BME280;57767;42.068;24.752;2023-12-07T05:07:44;98111.53;;;1.81;92.22
70343;BME280;57767;42.068;24.752;2023-12-07T05:08:46;98526.72;;;4.29;92.46
70343;BME280;57767;42.068;24.752;2023-12-07T05:09:48;98244.72;;;2.63;92.10
70343;BME280;57767;42.068;24.752;2023-12-07T05:10:49;98418.44;;;3.71;92.68
70343;BME280;57767;42.068;24.752;2023-12-07T05:11:53;98522.41;;;4.36;92.46
70343;BME280;57767;42.068;24.752;2023-12-07T05:12:54;98263.38;;;2.74;92.09
70343;BME280;57767;42.068;24.752;2023-12-07T05:13:58;98519.16;;;4.34;92.01
70343;BME280;57767;42.068;24.752;2023-12-07T05:15:00;98514.19;;;4.24;92.24
70343;BME280;57767;42.068;24.752;2023-12-07T05:16:02;98501.94;;;4.25;92.37
70343;BME280;57767;42.068;24.752;2023-12-07T05:17:04;98536.47;;;4.35;92.23
70343;BME280;57767;42.068;24.752;2023-12-07T05:18:06;98535.19;;;4.31;92.66
70343;BME280;57767;42.068;24.752;2023-12-07T05:19:08;98522.75;;;4.33;92.84
70343;BME280;57767;42.068;24.752;2023-12-07T05:20:11;98267.16;;;2.72;92.51
70343;BME280;57767;42.068;24.752;2023-12-07T05:21:14;98225.13;;;2.44;92.17
70343;BME280;57767;42.068;24.752;2023-12-07T05:22:15;98308.47;;;2.83;92.39
70343;BME280;57767;42.068;24.752;2023-12-07T05:23:17;98231.63;;;2.48;92.02
70343;BME280;57767;42.068;24.752;2023-12-07T05:24:19;98249.47;;;2.59;92.07
70343;BME280;57767;42.068;24.752;2023-12-07T05:25:21;98285.69;;;2.77;92.17
70343;BME280;57767;42.068;24.752;2023-12-07T05:26:23;98482.84;;;4.02;91.85
70343;BME280;57767;42.068;24.752;2023-12-07T05:27:25;98137.81;;;1.63;91.83
70343;BME280;57767;42.068;24.752;2023-12-07T05:28:26;98541.00;;;4.41;92.27
70343;BME280;57767;42.068;24.752;2023-12-07T05:29:28;98154.25;;;1.95;92.03
70343;BME280;57767;42.068;24.752;2023-12-07T05:30:30;98557.84;;;4.39;92.51
70343;BME280;57767;42.068;24.752;2023-12-07T05:31:31;98272.59;;;2.54;92.48
70343;BME280;57767;42.068;24.752;2023-12-07T05:32:33;98533.75;;;4.28;92.62